createdAt,value
2018-03-17T00:01:14.909Z,-0.70
2018-03-17T00:03:42.428Z,-0.60
2018-03-17T00:06:10.618Z,-0.60
2018-03-17T00:08:38.082Z,-0.40
2018-03-17T00:11:05.567Z,-0.50
2018-03-17T00:13:33.828Z,-0.60
2018-03-17T00:16:02.809Z,-0.80
2018-03-17T00:18:30.277Z,-0.80
2018-03-17T00:20:57.740Z,-0.80
2018-03-17T00:23:25.982Z,-0.90
2018-03-17T00:25:53.465Z,-0.90
2018-03-17T00:28:22.442Z,-1.00
2018-03-17T00:30:49.971Z,-1.00
2018-03-17T00:33:17.426Z,-1.00
2018-03-17T00:35:44.889Z,-1.00
2018-03-17T00:38:12.351Z,-1.00
2018-03-17T00:40:39.815Z,-1.00
2018-03-17T00:43:07.270Z,-1.00
2018-03-17T00:45:34.814Z,-1.10
2018-03-17T00:48:02.283Z,-1.20
2018-03-17T00:50:29.741Z,-1.20
2018-03-17T00:52:57.205Z,-1.20
2018-03-17T00:55:24.665Z,-1.20
2018-03-17T00:57:52.128Z,-1.30
2018-03-17T01:00:19.589Z,-1.30
2018-03-17T01:02:47.128Z,-1.20
2018-03-17T01:05:14.604Z,-1.30
2018-03-17T01:07:42.091Z,-1.30
2018-03-17T01:10:10.422Z,-1.50
2018-03-17T01:12:37.890Z,-1.60
2018-03-17T01:15:05.350Z,-1.50
2018-03-17T01:17:32.834Z,-1.60
2018-03-17T01:20:01.078Z,-1.70
2018-03-17T01:22:28.545Z,-1.70
2018-03-17T01:24:56.802Z,-1.60
2018-03-17T01:27:24.286Z,-1.70
2018-03-17T01:29:51.808Z,-1.60
2018-03-17T01:32:19.269Z,-1.70
2018-03-17T01:34:46.756Z,-1.70
2018-03-17T01:37:14.315Z,-1.70
2018-03-17T01:39:41.988Z,-1.80
2018-03-17T01:42:10.217Z,-1.90
2018-03-17T01:44:37.686Z,-1.90
2018-03-17T01:47:05.220Z,-1.90
2018-03-17T01:49:32.684Z,-1.80
2018-03-17T01:52:00.145Z,-1.70
2018-03-17T01:54:31.335Z,-1.70
2018-03-17T01:56:59.622Z,-1.70
2018-03-17T01:59:27.118Z,-1.80
2018-03-17T02:01:54.574Z,-1.80
2018-03-17T02:04:22.039Z,-2.00
2018-03-17T02:06:49.518Z,-2.00
2018-03-17T02:09:16.970Z,-2.10
2018-03-17T02:11:44.453Z,-2.10
2018-03-17T02:14:11.911Z,-2.10
2018-03-17T02:16:40.159Z,-2.10
2018-03-17T02:19:07.624Z,-2.20
2018-03-17T02:21:35.104Z,-2.10
2018-03-17T02:24:03.320Z,-2.10
2018-03-17T02:26:30.791Z,-2.20
2018-03-17T02:28:58.253Z,-2.10
2018-03-17T02:31:25.732Z,-2.20
2018-03-17T02:33:53.290Z,-2.20
2018-03-17T02:36:20.844Z,-2.30
2018-03-17T02:38:48.317Z,-2.40
2018-03-17T02:41:16.555Z,-2.50
2018-03-17T02:43:44.017Z,-2.50
2018-03-17T02:46:11.472Z,-2.40
2018-03-17T02:48:38.974Z,-2.40
2018-03-17T02:51:07.236Z,-2.40
2018-03-17T02:53:35.457Z,-2.40
2018-03-17T02:56:02.930Z,-2.50
2018-03-17T02:58:30.524Z,-2.30
2018-03-17T03:00:57.985Z,-2.40
2018-03-17T03:03:25.438Z,-2.40
2018-03-17T03:05:52.986Z,-2.30
2018-03-17T03:08:20.444Z,-2.30
2018-03-17T03:10:48.664Z,-2.30
2018-03-17T03:13:16.137Z,-2.40
2018-03-17T03:15:43.634Z,-2.30
2018-03-17T03:18:11.197Z,-2.40
2018-03-17T03:20:38.668Z,-2.50
2018-03-17T03:23:06.887Z,-2.50
2018-03-17T03:25:34.373Z,-2.60
2018-03-17T03:28:01.842Z,-2.50
2018-03-17T03:30:29.300Z,-2.60
2018-03-17T03:32:57.524Z,-2.60
2018-03-17T03:35:25.029Z,-2.70
2018-03-17T03:37:52.585Z,-2.50
2018-03-17T03:40:20.145Z,-2.50
2018-03-17T03:42:47.605Z,-2.50
2018-03-17T03:45:16.595Z,-2.60
2018-03-17T03:47:44.148Z,-2.60
2018-03-17T03:50:11.609Z,-2.50
2018-03-17T03:52:39.100Z,-2.50
2018-03-17T03:55:06.559Z,-2.60
2018-03-17T03:57:34.037Z,-2.60
2018-03-17T04:00:01.505Z,-2.70
2018-03-17T04:02:29.004Z,-2.70
2018-03-17T04:04:57.641Z,-2.60
2018-03-17T04:07:25.113Z,-2.70
2018-03-17T04:09:52.559Z,-2.60
2018-03-17T04:12:20.032Z,-2.80
2018-03-17T04:14:47.486Z,-2.90
2018-03-17T04:17:14.977Z,-2.90
2018-03-17T04:19:43.231Z,-2.80
2018-03-17T04:22:12.214Z,-2.90
2018-03-17T04:24:39.673Z,-2.80
2018-03-17T04:27:07.127Z,-2.70
2018-03-17T04:29:34.589Z,-2.80
2018-03-17T04:32:02.059Z,-2.90
2018-03-17T04:34:29.607Z,-2.90
2018-03-17T04:36:57.271Z,-2.90
2018-03-17T04:39:26.240Z,-2.80
2018-03-17T04:41:53.708Z,-2.80
2018-03-17T04:44:21.164Z,-2.70
2018-03-17T04:46:48.633Z,-2.80
2018-03-17T04:49:16.089Z,-2.80
2018-03-17T04:51:44.372Z,-2.80
2018-03-17T04:54:11.848Z,-2.90
2018-03-17T04:56:40.074Z,-2.70
2018-03-17T04:59:07.614Z,-2.80
2018-03-17T05:01:35.081Z,-2.70
2018-03-17T05:04:02.548Z,-2.80
2018-03-17T05:06:30.029Z,-2.70
2018-03-17T05:08:57.554Z,-2.80
2018-03-17T05:11:25.025Z,-2.70
2018-03-17T05:13:52.561Z,-2.80
2018-03-17T05:16:20.031Z,-2.80
2018-03-17T05:18:47.492Z,-2.80
2018-03-17T05:21:14.960Z,-2.90
2018-03-17T05:23:42.427Z,-2.90
2018-03-17T05:26:09.984Z,-2.90
2018-03-17T05:28:37.458Z,-2.90
2018-03-17T05:31:04.928Z,-2.80
2018-03-17T05:33:33.164Z,-2.70
2018-03-17T05:36:00.629Z,-2.70
2018-03-17T05:38:28.113Z,-2.60
2018-03-17T05:40:56.347Z,-2.80
2018-03-17T05:43:23.806Z,-2.80
2018-03-17T05:45:51.261Z,-2.90
2018-03-17T05:48:18.724Z,-2.90
2018-03-17T05:50:46.388Z,-2.80
2018-03-17T05:53:13.852Z,-2.80
2018-03-17T05:55:41.480Z,-2.70
2018-03-17T05:58:09.049Z,-2.60
2018-03-17T06:00:36.523Z,-2.70
2018-03-17T06:03:03.980Z,-2.80
2018-03-17T06:05:31.534Z,-2.80
2018-03-17T06:07:59.001Z,-2.70
2018-03-17T06:10:26.466Z,-2.70
2018-03-17T06:12:53.985Z,-2.70
2018-03-17T06:15:21.488Z,-2.80
2018-03-17T06:17:49.742Z,-3.00
2018-03-17T06:20:17.225Z,-3.00
2018-03-17T06:22:45.466Z,-3.10
2018-03-17T06:25:12.978Z,-3.10
2018-03-17T06:27:40.472Z,-3.10
2018-03-17T06:30:07.951Z,-3.00
2018-03-17T06:32:35.415Z,-2.90
2018-03-17T06:35:02.898Z,-2.90
2018-03-17T06:37:30.358Z,-2.90
2018-03-17T06:39:57.816Z,-2.90
2018-03-17T06:42:25.396Z,-3.00
2018-03-17T06:44:53.596Z,-2.90
2018-03-17T06:47:21.133Z,-3.00
2018-03-17T06:49:48.786Z,-2.90
2018-03-17T06:52:16.257Z,-2.80
2018-03-17T06:54:43.770Z,-2.80
2018-03-17T06:57:12.020Z,-2.90
2018-03-17T06:59:39.544Z,-2.90
2018-03-17T07:02:07.010Z,-2.80
2018-03-17T07:04:34.505Z,-2.80
2018-03-17T07:07:02.001Z,-2.80
2018-03-17T07:09:30.211Z,-2.60
2018-03-17T07:11:57.672Z,-2.60
2018-03-17T07:14:25.260Z,-2.60
2018-03-17T07:16:53.494Z,-2.50
2018-03-17T07:19:20.969Z,-2.50
2018-03-17T07:21:48.530Z,-2.40
2018-03-17T07:24:15.984Z,-2.40
2018-03-17T07:26:43.459Z,-2.40
2018-03-17T07:29:10.908Z,-2.50
2018-03-17T07:31:39.190Z,-2.70
2018-03-17T07:34:07.452Z,-2.70
2018-03-17T07:36:36.427Z,-2.70
2018-03-17T07:39:03.882Z,-2.70
2018-03-17T07:41:31.370Z,-2.50
2018-03-17T07:43:59.645Z,-2.20
2018-03-17T07:46:27.107Z,-2.30
2018-03-17T07:48:55.360Z,-2.40
2018-03-17T07:51:22.822Z,-2.50
2018-03-17T07:53:50.272Z,-2.50
2018-03-17T07:56:17.740Z,-2.50
2018-03-17T07:58:45.208Z,-2.40
2018-03-17T08:01:13.470Z,-2.20
2018-03-17T08:03:40.962Z,-2.30
2018-03-17T08:06:08.448Z,-2.20
2018-03-17T08:08:35.998Z,-2.20
2018-03-17T08:11:03.507Z,-2.10
2018-03-17T08:13:30.967Z,-2.10
2018-03-17T08:15:58.429Z,-2.10
2018-03-17T08:18:26.661Z,-2.00
2018-03-17T08:20:54.202Z,-2.10
2018-03-17T08:23:21.666Z,-2.10
2018-03-17T08:25:49.121Z,-2.10
2018-03-17T08:28:16.626Z,-2.10
2018-03-17T08:30:44.848Z,-1.90
2018-03-17T08:33:12.366Z,-1.90
2018-03-17T08:35:40.589Z,-1.80
2018-03-17T08:38:08.068Z,-1.80
2018-03-17T08:40:35.573Z,-1.90
2018-03-17T08:43:03.086Z,-1.70
2018-03-17T08:45:30.547Z,-1.60
2018-03-17T08:47:58.120Z,-1.60
2018-03-17T08:50:26.373Z,-1.40
2018-03-17T08:52:53.831Z,-1.50
2018-03-17T08:55:21.292Z,-1.20
2018-03-17T08:57:48.761Z,-1.20
2018-03-17T09:00:16.237Z,-1.10
2018-03-17T09:02:44.470Z,-1.00
2018-03-17T09:05:11.932Z,-1.00
2018-03-17T09:07:39.455Z,-0.80
2018-03-17T09:10:06.923Z,-0.80
2018-03-17T09:12:34.379Z,-0.90
2018-03-17T09:15:01.850Z,-1.00
2018-03-17T09:17:29.301Z,-1.00
2018-03-17T09:19:56.775Z,-1.00
2018-03-17T09:22:24.232Z,-1.00
2018-03-17T09:24:51.792Z,-1.10
2018-03-17T09:27:19.361Z,-0.90
2018-03-17T09:29:46.837Z,-0.50
2018-03-17T09:32:15.067Z,1.00
2018-03-17T09:34:42.541Z,1.00
2018-03-17T09:37:10.004Z,1.30
2018-03-17T09:39:38.275Z,1.20
2018-03-17T09:42:05.750Z,1.20
2018-03-17T09:44:33.968Z,1.30
2018-03-17T09:47:02.205Z,1.20
2018-03-17T09:49:30.456Z,2.10
2018-03-17T09:51:57.911Z,2.10
2018-03-17T09:54:25.409Z,2.00
2018-03-17T09:56:53.657Z,1.60
2018-03-17T09:59:21.126Z,1.50
2018-03-17T10:01:49.371Z,1.10
2018-03-17T10:04:16.842Z,1.00
2018-03-17T10:06:44.303Z,1.00
2018-03-17T10:09:11.776Z,1.10
2018-03-17T10:11:40.157Z,1.40
2018-03-17T10:14:08.371Z,1.50
2018-03-17T10:16:35.856Z,1.40
2018-03-17T10:19:03.422Z,1.60
2018-03-17T10:21:30.864Z,1.80
2018-03-17T10:23:58.388Z,2.10
2018-03-17T10:26:25.845Z,2.70
2018-03-17T10:28:53.320Z,3.10
2018-03-17T10:31:20.768Z,3.50
2018-03-17T10:33:48.267Z,3.80
2018-03-17T10:36:15.735Z,3.40
2018-03-17T10:38:43.181Z,2.90
2018-03-17T10:41:10.739Z,3.30
2018-03-17T10:43:38.200Z,3.60
2018-03-17T10:46:05.654Z,2.80
2018-03-17T10:48:33.124Z,2.10
2018-03-17T10:51:01.363Z,2.00
2018-03-17T10:53:28.812Z,1.90
2018-03-17T10:55:56.275Z,1.70
2018-03-17T10:58:23.750Z,1.80
2018-03-17T11:00:54.129Z,1.70
2018-03-17T11:03:21.587Z,2.10
2018-03-17T11:05:49.082Z,2.40
2018-03-17T11:08:16.560Z,2.70
2018-03-17T11:10:44.784Z,2.10
2018-03-17T11:13:12.238Z,2.10
2018-03-17T11:15:39.749Z,2.00
2018-03-17T11:18:07.975Z,2.60
2018-03-17T11:20:35.477Z,2.50
2018-03-17T11:23:03.081Z,2.30
2018-03-17T11:25:30.472Z,2.60
2018-03-17T11:27:57.957Z,2.70
2018-03-17T11:30:26.174Z,2.70
2018-03-17T11:32:53.691Z,2.60
2018-03-17T11:35:21.918Z,3.00
2018-03-17T11:37:49.394Z,2.90
2018-03-17T11:40:16.952Z,2.80
2018-03-17T11:42:44.404Z,2.90
2018-03-17T11:45:11.964Z,3.20
2018-03-17T11:47:39.550Z,3.60
2018-03-17T11:50:07.804Z,3.90
2018-03-17T11:52:35.374Z,3.80
2018-03-17T11:55:02.916Z,3.90
2018-03-17T11:57:30.376Z,3.80
2018-03-17T11:59:57.833Z,3.70
2018-03-17T12:02:25.292Z,3.50
2018-03-17T12:04:52.761Z,3.30
2018-03-17T12:07:20.226Z,3.40
2018-03-17T12:09:48.484Z,2.80
2018-03-17T12:12:15.954Z,2.70
2018-03-17T12:14:44.204Z,2.60
2018-03-17T12:17:11.674Z,2.50
2018-03-17T12:19:39.130Z,2.60
2018-03-17T12:22:06.685Z,2.60
2018-03-17T12:24:34.144Z,2.70
2018-03-17T12:27:01.607Z,2.90
2018-03-17T12:29:29.069Z,2.80
2018-03-17T12:31:56.530Z,2.70
2018-03-17T12:34:24.792Z,3.00
2018-03-17T12:36:52.244Z,2.90
2018-03-17T12:39:19.700Z,3.00
2018-03-17T12:41:47.144Z,3.10
2018-03-17T12:44:14.604Z,2.90
2018-03-17T12:46:42.072Z,2.80
2018-03-17T12:49:09.523Z,2.40
2018-03-17T12:51:37.817Z,2.40
2018-03-17T12:54:05.353Z,2.30
2018-03-17T12:56:32.920Z,2.20
2018-03-17T12:59:00.472Z,2.10
2018-03-17T13:01:28.027Z,2.00
2018-03-17T13:03:55.528Z,2.00
2018-03-17T13:06:23.752Z,1.90
2018-03-17T13:08:51.212Z,1.90
2018-03-17T13:11:18.701Z,1.80
2018-03-17T13:13:46.959Z,1.70
2018-03-17T13:16:15.199Z,1.90
2018-03-17T13:18:42.647Z,1.80
2018-03-17T13:21:10.119Z,1.90
2018-03-17T13:23:37.592Z,1.90
2018-03-17T13:26:05.065Z,1.90
2018-03-17T13:28:32.508Z,1.80
2018-03-17T13:31:00.381Z,1.80
2018-03-17T13:33:27.918Z,1.70
2018-03-17T13:36:07.036Z,1.60
2018-03-17T13:38:34.520Z,1.70
2018-03-17T13:41:01.992Z,1.90
2018-03-17T13:43:29.450Z,2.10
2018-03-17T13:45:56.912Z,2.30
2018-03-17T13:48:25.132Z,2.60
2018-03-17T13:50:52.585Z,2.60
2018-03-17T13:53:20.042Z,2.90
2018-03-17T13:55:47.505Z,3.20
2018-03-17T13:58:15.019Z,3.40
2018-03-17T14:00:43.264Z,2.90
2018-03-17T14:03:10.733Z,2.90
2018-03-17T14:05:38.966Z,2.80
2018-03-17T14:08:06.436Z,2.70
2018-03-17T14:10:33.916Z,2.90
2018-03-17T14:13:01.400Z,3.00
2018-03-17T14:15:28.936Z,3.20
2018-03-17T14:17:56.497Z,2.90
2018-03-17T14:20:23.954Z,2.20
2018-03-17T14:22:51.436Z,2.00
2018-03-17T14:25:19.683Z,2.50
2018-03-17T14:27:47.154Z,2.50
2018-03-17T14:30:14.643Z,2.80
2018-03-17T14:32:42.084Z,2.80
2018-03-17T14:35:10.310Z,2.90
2018-03-17T14:37:37.768Z,2.80
2018-03-17T14:40:05.233Z,2.90
2018-03-17T14:42:32.726Z,3.00
2018-03-17T14:45:00.186Z,3.30
2018-03-17T14:47:28.433Z,3.20
2018-03-17T14:49:56.005Z,3.10
2018-03-17T14:52:24.288Z,2.70
2018-03-17T14:54:52.504Z,2.20
2018-03-17T14:57:19.981Z,2.10
2018-03-17T14:59:47.462Z,1.80
2018-03-17T15:02:15.003Z,1.80
2018-03-17T15:04:42.590Z,1.90
2018-03-17T15:07:10.813Z,3.60
2018-03-17T15:09:38.316Z,3.60
2018-03-17T15:12:06.541Z,5.30
2018-03-17T15:14:34.009Z,5.20
2018-03-17T15:17:01.472Z,5.00
2018-03-17T15:19:28.954Z,5.00
2018-03-17T15:21:56.428Z,5.40
2018-03-17T15:24:24.693Z,5.70
2018-03-17T15:26:52.279Z,5.70
2018-03-17T15:29:20.506Z,6.40
2018-03-17T15:31:47.967Z,6.20
2018-03-17T15:34:15.538Z,6.80
2018-03-17T15:36:43.014Z,7.20
2018-03-17T15:39:11.254Z,8.10
2018-03-17T15:41:38.808Z,8.00
2018-03-17T15:44:06.281Z,7.80
2018-03-17T15:46:33.749Z,7.50
2018-03-17T15:49:02.066Z,6.00
2018-03-17T15:51:29.548Z,5.90
2018-03-17T15:53:57.020Z,5.10
2018-03-17T15:56:24.480Z,5.00
2018-03-17T15:58:51.972Z,5.40
2018-03-17T16:01:20.197Z,5.80
2018-03-17T16:03:47.678Z,5.80
2018-03-17T16:06:15.149Z,6.10
2018-03-17T16:08:42.610Z,6.40
2018-03-17T16:11:11.066Z,6.90
2018-03-17T16:13:38.524Z,6.90
2018-03-17T16:16:05.980Z,6.70
2018-03-17T16:18:33.449Z,6.60
2018-03-17T16:21:01.674Z,4.90
2018-03-17T16:23:29.185Z,4.80
2018-03-17T16:25:57.405Z,4.80
2018-03-17T16:28:24.869Z,4.80
2018-03-17T16:30:52.327Z,3.80
2018-03-17T16:33:19.800Z,3.00
2018-03-17T16:35:47.374Z,2.70
2018-03-17T16:38:14.925Z,2.30
2018-03-17T16:40:42.392Z,1.60
2018-03-17T16:43:10.617Z,1.00
2018-03-17T16:45:38.079Z,0.90
2018-03-17T16:48:05.544Z,1.10
2018-03-17T16:50:33.009Z,1.00
2018-03-17T16:53:00.542Z,0.90
2018-03-17T16:55:27.993Z,0.70
2018-03-17T16:57:55.455Z,0.60
2018-03-17T17:00:22.994Z,0.50
2018-03-17T17:02:50.479Z,0.50
2018-03-17T17:05:17.956Z,0.40
2018-03-17T17:07:45.413Z,0.30
2018-03-17T17:10:12.891Z,0.30
2018-03-17T17:12:40.344Z,0.30
2018-03-17T17:15:07.862Z,0.20
2018-03-17T17:17:35.336Z,0.10
2018-03-17T17:20:02.805Z,-0.10
2018-03-17T17:22:30.298Z,-0.10
2018-03-17T17:24:57.731Z,-0.10
2018-03-17T17:27:25.200Z,-0.10
2018-03-17T17:29:53.424Z,0.10
2018-03-17T17:32:21.008Z,0.00
2018-03-17T17:34:48.488Z,-0.10
2018-03-17T17:37:16.720Z,-0.10
2018-03-17T17:39:44.183Z,-0.20
2018-03-17T17:42:11.648Z,-0.10
2018-03-17T17:44:39.134Z,-0.10
2018-03-17T17:47:06.672Z,-0.10
2018-03-17T17:49:34.132Z,-0.10
2018-03-17T17:52:01.621Z,-0.10
2018-03-17T17:54:29.929Z,-0.20
2018-03-17T17:56:57.404Z,-0.30
2018-03-17T17:59:24.865Z,-0.20
2018-03-17T18:01:52.423Z,-0.20
2018-03-17T18:04:19.964Z,-0.10
2018-03-17T18:06:47.454Z,-0.10
2018-03-17T18:09:14.916Z,-0.10
2018-03-17T18:11:42.388Z,-0.20
2018-03-17T18:14:10.713Z,-0.30
2018-03-17T18:16:38.187Z,-0.30
2018-03-17T18:19:05.657Z,-0.20
2018-03-17T18:21:33.167Z,-0.10
2018-03-17T18:24:00.677Z,-0.30
2018-03-17T18:26:28.098Z,-0.40
2018-03-17T18:28:55.572Z,-0.40
2018-03-17T18:31:23.058Z,-0.40
2018-03-17T18:33:50.524Z,-0.40
2018-03-17T18:36:18.772Z,-0.40
2018-03-17T18:38:46.338Z,-0.50
2018-03-17T18:41:14.561Z,-0.40
2018-03-17T18:43:42.037Z,-0.40
2018-03-17T18:46:09.593Z,-0.40
2018-03-17T18:48:37.078Z,-0.30
2018-03-17T18:51:04.583Z,-0.30
2018-03-17T18:53:32.817Z,-0.40
2018-03-17T18:56:00.281Z,-0.50
2018-03-17T18:58:27.728Z,-0.40
2018-03-17T19:00:55.198Z,-0.40
2018-03-17T19:03:22.656Z,-0.40
2018-03-17T19:05:50.900Z,-0.40
2018-03-17T19:08:18.449Z,-0.50
2018-03-17T19:10:45.944Z,-0.40
2018-03-17T19:13:14.216Z,-0.50
2018-03-17T19:15:41.710Z,-0.50
2018-03-17T19:18:10.048Z,-0.50
2018-03-17T19:20:37.515Z,-0.60
2018-03-17T19:23:05.747Z,-0.50
2018-03-17T19:25:33.196Z,-0.60
2018-03-17T19:28:00.662Z,-0.50
2018-03-17T19:30:28.168Z,-0.50
2018-03-17T19:32:56.402Z,-0.60
2018-03-17T19:35:23.882Z,-0.70
2018-03-17T19:37:51.353Z,-0.60
2018-03-17T19:40:19.740Z,-0.60
2018-03-17T19:42:47.988Z,-0.60
2018-03-17T19:45:15.461Z,-0.60
2018-03-17T19:47:43.817Z,-0.50
2018-03-17T19:50:11.380Z,-0.60
2018-03-17T19:52:38.837Z,-0.60
2018-03-17T19:55:06.389Z,-0.60
2018-03-17T19:57:33.916Z,-0.60
2018-03-17T20:00:01.441Z,-0.50
2018-03-17T20:02:29.670Z,-0.70
2018-03-17T20:04:57.563Z,-0.70
2018-03-17T20:07:25.114Z,-0.70
2018-03-17T20:09:52.665Z,-0.60
2018-03-17T20:12:20.136Z,-0.60
2018-03-17T20:14:47.613Z,-0.60
2018-03-17T20:17:15.845Z,-0.60
2018-03-17T20:19:43.320Z,-0.70
2018-03-17T20:22:11.566Z,-0.50
2018-03-17T20:24:39.027Z,-0.60
2018-03-17T20:27:06.489Z,-0.60
2018-03-17T20:29:33.972Z,-0.60
2018-03-17T20:32:01.448Z,-0.70
2018-03-17T20:34:28.970Z,-0.70
2018-03-17T20:36:56.542Z,-0.70
2018-03-17T20:39:24.019Z,-0.70
2018-03-17T20:41:52.261Z,-0.70
2018-03-17T20:44:19.758Z,-0.80
2018-03-17T20:46:47.989Z,-0.90
2018-03-17T20:49:15.454Z,-0.90
2018-03-17T20:51:42.912Z,-0.90
2018-03-17T20:54:10.474Z,-0.90
2018-03-17T20:56:38.750Z,-0.90
2018-03-17T20:59:06.258Z,-0.90
2018-03-17T21:01:33.724Z,-0.80
2018-03-17T21:04:01.212Z,-0.80
2018-03-17T21:06:28.677Z,-0.90
2018-03-17T21:08:56.147Z,-0.90
2018-03-17T21:11:24.495Z,-1.00
2018-03-17T21:13:51.966Z,-1.10
2018-03-17T21:16:19.542Z,-1.10
2018-03-17T21:18:47.781Z,-1.20
2018-03-17T21:21:15.261Z,-1.30
2018-03-17T21:23:42.724Z,-1.20
2018-03-17T21:26:10.964Z,-1.10
2018-03-17T21:28:38.442Z,-1.20
2018-03-17T21:31:05.933Z,-1.10
2018-03-17T21:33:34.295Z,-1.20
2018-03-17T21:36:01.785Z,-1.20
2018-03-17T21:38:29.257Z,-1.20
2018-03-17T21:40:56.764Z,-1.30
2018-03-17T21:43:24.180Z,-1.20
2018-03-17T21:45:51.648Z,-1.30
2018-03-17T21:48:19.120Z,-1.30
2018-03-17T21:50:46.678Z,-1.30
2018-03-17T21:53:14.142Z,-1.30
2018-03-17T21:55:43.126Z,-1.40
2018-03-17T21:58:10.599Z,-1.40
2018-03-17T22:00:38.084Z,-1.30
2018-03-17T22:03:05.544Z,-1.30
2018-03-17T22:05:33.030Z,-1.40
2018-03-17T22:08:00.524Z,-1.30
2018-03-17T22:10:27.993Z,-1.30
2018-03-17T22:12:56.258Z,-1.40
2018-03-17T22:15:23.721Z,-1.40
2018-03-17T22:17:51.965Z,-1.40
2018-03-17T22:20:19.442Z,-1.50
2018-03-17T22:22:47.702Z,-1.60
2018-03-17T22:25:15.170Z,-1.60
2018-03-17T22:27:42.645Z,-1.50
2018-03-17T22:30:10.905Z,-1.50
2018-03-17T22:32:39.886Z,-1.70
2018-03-17T22:35:07.457Z,-1.70
2018-03-17T22:37:34.923Z,-1.60
2018-03-17T22:40:03.176Z,-1.50
2018-03-17T22:42:30.666Z,-1.50
2018-03-17T22:44:58.904Z,-1.50
2018-03-17T22:47:26.360Z,-1.60
2018-03-17T22:49:53.836Z,-1.60
2018-03-17T22:52:21.352Z,-1.60
2018-03-17T22:54:49.536Z,-1.70
2018-03-17T22:57:17.004Z,-1.70
2018-03-17T22:59:44.465Z,-1.60
2018-03-17T23:02:12.027Z,-1.60
2018-03-17T23:04:41.000Z,-1.60
2018-03-17T23:07:08.472Z,-1.60
2018-03-17T23:09:35.951Z,-1.60
2018-03-17T23:12:04.193Z,-1.70
2018-03-17T23:14:31.660Z,-1.80
2018-03-17T23:16:59.125Z,-1.80
2018-03-17T23:19:26.588Z,-1.90
2018-03-17T23:21:54.149Z,-1.90
2018-03-17T23:24:21.600Z,-2.00
2018-03-17T23:26:49.056Z,-1.90
2018-03-17T23:29:16.523Z,-1.90
2018-03-17T23:31:43.989Z,-2.00
2018-03-17T23:34:12.262Z,-2.10
2018-03-17T23:36:40.500Z,-2.10
2018-03-17T23:39:07.987Z,-2.20
2018-03-17T23:41:36.221Z,-2.10
2018-03-17T23:44:03.716Z,-2.20
2018-03-17T23:46:32.722Z,-2.20
2018-03-17T23:49:00.956Z,-2.20
2018-03-17T23:51:28.412Z,-2.20
2018-03-17T23:53:55.881Z,-2.20
2018-03-17T23:56:24.107Z,-2.20
2018-03-17T23:58:51.573Z,-2.30
